Time;durP1;ratioP1;P1;durP2;ratioP2;P2;SDS_P1;SDS_P2;PMS_P1;PMS_P2;Temp;Humidity;BMP_temperature;BMP_pressure;BME280_temperature;BME280_humidity;BME280_pressure;Samples;Min_cycle;Max_cycle;Signal;HPM_P1;HPM_P2
2022/04/01 00:03:33;;;;;;;10.43;4.15;;;;;;;;;;10549875;28;20096;-71
2022/04/01 00:08:36;;;;;;;9.52;3.85;;;;;;;;;;10528932;28;20550;-74
2022/04/01 00:13:39;;;;;;;8.30;3.78;;;;;;;;;;10521030;28;20036;-74
2022/04/01 00:18:43;;;;;;;9.10;3.72;;;;;;;;;;10510832;28;20040;-73
2022/04/01 00:23:46;;;;;;;2.25;1.00;;;;;;;;;;10510983;28;20452;-74
2022/04/01 00:28:49;;;;;;;1.92;1.30;;;;;;;;;;10522896;28;20047;-73
2022/04/01 00:34:15;;;;;;;6.47;1.80;;;;;;;;;;10524295;28;20036;-72
2022/04/01 00:39:18;;;;;;;2.40;1.30;;;;;;;;;;10503133;28;20474;-74
2022/04/01 00:44:22;;;;;;;1.85;1.17;;;;;;;;;;10523153;28;20093;-75
2022/04/01 00:49:26;;;;;;;;;;;;;;;;;;10517477;28;20411;-74
2022/04/01 00:54:31;;;;;;;4.22;1.88;;;;;;;;;;10512282;28;19919;-73
2022/04/01 00:59:35;;;;;;;4.70;2.10;;;;;;;;;;10506983;28;20087;-74
2022/04/01 01:04:39;;;;;;;5.30;2.40;;;;;;;;;;10523503;28;20720;-73
2022/04/01 01:09:44;;;;;;;6.25;2.67;;;;;;;;;;10517928;28;20043;-75
2022/04/01 01:14:47;;;;;;;4.72;1.85;;;;;;;;;;10504823;28;20036;-73
2022/04/01 01:19:50;;;;;;;5.35;2.20;;;;;;;;;;10498973;28;20098;-74
2022/04/01 01:24:56;;;;;;;5.68;2.33;;;;;;;;;;10516658;28;20032;-74
2022/04/01 01:29:59;;;;;;;5.22;2.10;;;;;;;;;;10518284;28;20048;-72
2022/04/01 01:35:03;;;;;;;6.60;2.60;;;;;;;;;;10523795;28;20032;-72
2022/04/01 01:40:09;;;;;;;7.47;2.50;;;;;;;;;;10513063;28;20645;-73
2022/04/01 01:45:12;;;;;;;4.97;2.08;;;;;;;;;;10517199;28;20121;-74
2022/04/01 01:55:37;;;;;;;3.97;1.98;;;;;;;;;;10519345;28;20850;-74
2022/04/01 02:00:39;;;;;;;;;;;;;;;;;;10505167;28;20105;-74
2022/04/01 02:05:42;;;;;;;4.63;2.40;;;;;;;;;;10520354;28;19943;-74
2022/04/01 02:10:46;;;;;;;5.30;2.80;;;;;;;;;;10507859;28;20096;-73
2022/04/01 02:15:49;;;;;;;;;;;;;;;;;;10500417;28;20633;-72
2022/04/01 02:20:52;;;;;;;7.07;3.00;;;;;;;;;;10512996;28;19938;-74
2022/04/01 02:25:56;;;;;;;3.17;1.53;;;;;;;;;;10524800;28;20420;-73
2022/04/01 02:30:59;;;;;;;3.80;1.90;;;;;;;;;;10513512;28;20032;-71
2022/04/01 02:36:02;;;;;;;6.22;3.13;;;;;;;;;;10512550;28;20031;-72
2022/04/01 02:41:07;;;;;;;10.18;2.88;;;;;;;;;;10503238;28;20036;-72
2022/04/01 02:46:10;;;;;;;3.58;1.77;;;;;;;;;;10513390;28;20028;-71
2022/04/01 02:51:14;;;;;;;3.17;1.67;;;;;;;;;;10517959;28;20129;-73
2022/04/01 02:56:18;;;;;;;1.92;0.85;;;;;;;;;;10492744;28;20040;-73
2022/04/01 03:01:21;;;;;;;3.40;1.80;;;;;;;;;;10499319;28;20044;-73
2022/04/01 03:06:25;;;;;;;0.98;0.77;;;;;;;;;;10502381;28;20039;-74
2022/04/01 03:11:29;;;;;;;3.27;1.33;;;;;;;;;;10518945;28;20041;-74
2022/04/01 03:16:31;;;;;;;;;;;;;;;;;;10520124;28;20414;-73
2022/04/01 03:21:34;;;;;;;1.52;0.85;;;;;;;;;;10517634;28;19916;-73
2022/04/01 03:26:39;;;;;;;3.97;2.40;;;;;;;;;;10498301;28;20097;-72
2022/04/01 03:31:42;;;;;;;2.43;1.13;;;;;;;;;;10519260;28;20036;-73
2022/04/01 03:36:45;;;;;;;1.55;0.98;;;;;;;;;;10507162;28;20526;-71
2022/04/01 03:41:50;;;;;;;1.48;1.02;;;;;;;;;;10505802;28;20489;-71
2022/04/01 03:46:56;;;;;;;2.92;1.52;;;;;;;;;;10526701;28;20044;-71
2022/04/01 03:51:59;;;;;;;1.97;1.30;;;;;;;;;;10506634;28;20825;-71
2022/04/01 03:57:04;;;;;;;1.97;1.20;;;;;;;;;;10513382;28;21880;-69
2022/04/01 04:02:08;;;;;;;2.78;1.38;;;;;;;;;;10501906;28;20535;-70
2022/04/01 04:07:11;;;;;;;2.40;1.13;;;;;;;;;;10515501;28;20032;-71
2022/04/01 04:12:22;;;;;;;1.17;0.65;;;;;;;;;;10527806;28;20048;-69
2022/04/01 04:17:40;;;;;;;1.38;0.85;;;;;;;;;;10509464;28;20051;-71
2022/04/01 04:22:50;;;;;;;2.38;1.50;;;;;;;;;;10514892;28;20032;-70
2022/04/01 04:27:58;;;;;;;1.20;0.87;;;;;;;;;;10520369;28;20044;-71
2022/04/01 04:33:05;;;;;;;1.47;0.70;;;;;;;;;;10514428;28;20097;-71
2022/04/01 04:38:10;;;;;;;5.05;2.30;;;;;;;;;;10524655;28;20105;-71
2022/04/01 04:43:18;;;;;;;3.13;1.87;;;;;;;;;;10519695;28;20684;-70
2022/04/01 04:48:23;;;;;;;1.87;1.23;;;;;;;;;;10518011;28;20036;-70
2022/04/01 04:53:28;;;;;;;2.07;1.37;;;;;;;;;;10498412;28;20053;-70
2022/04/01 04:58:34;;;;;;;1.73;1.23;;;;;;;;;;10515949;28;20041;-71
2022/04/01 05:03:52;;;;;;;1.90;1.13;;;;;;;;;;10504539;28;20037;-70
2022/04/01 05:09:00;;;;;;;0.40;0.40;;;;;;;;;;10500726;28;20044;-69
2022/04/01 05:14:13;;;;;;;0.50;0.40;;;;;;;;;;10501019;28;20093;-69
2022/04/01 05:19:23;;;;;;;2.07;0.80;;;;;;;;;;10504182;28;20064;-71
2022/04/01 05:24:27;;;;;;;1.23;0.83;;;;;;;;;;10521030;28;20033;-72
2022/04/01 05:29:37;;;;;;;1.83;1.30;;;;;;;;;;10518700;28;20041;-71
2022/04/01 05:34:41;;;;;;;3.93;1.30;;;;;;;;;;10504516;28;20032;-71
2022/04/01 05:39:47;;;;;;;0.47;0.47;;;;;;;;;;10519785;28;20090;-70
2022/04/01 05:44:51;;;;;;;1.93;1.07;;;;;;;;;;10517549;28;20040;-70
2022/04/01 05:49:56;;;;;;;1.40;0.80;;;;;;;;;;10510013;28;20036;-70
2022/04/01 05:55:00;;;;;;;0.33;0.27;;;;;;;;;;10518963;28;20031;-70
2022/04/01 06:00:06;;;;;;;0.60;0.50;;;;;;;;;;10516611;28;20133;-71
2022/04/01 06:05:18;;;;;;;4.33;0.60;;;;;;;;;;10520322;28;20032;-73
2022/04/01 06:10:24;;;;;;;2.53;1.27;;;;;;;;;;10514849;28;20043;-73
2022/04/01 06:15:33;;;;;;;1.00;0.47;;;;;;;;;;10503517;28;20933;-73
2022/04/01 06:20:39;;;;;;;0.83;0.50;;;;;;;;;;10503838;28;20032;-72
2022/04/01 06:25:45;;;;;;;0.93;0.40;;;;;;;;;;10447242;23;20416;-73
2022/04/01 06:30:49;;;;;;;0.53;0.37;;;;;;;;;;10435378;28;20064;-73
2022/04/01 06:35:56;;;;;;;1.17;0.70;;;;;;;;;;10433876;28;20093;-73
2022/04/01 06:41:00;;;;;;;2.33;1.17;;;;;;;;;;10433249;28;20061;-72
2022/04/01 06:46:03;;;;;;;;;;;;;;;;;;10423723;28;20455;-72
2022/04/01 06:51:08;;;;;;;1.60;0.40;;;;;;;;;;10425866;28;19928;-73
2022/04/01 06:56:11;;;;;;;0.80;0.60;;;;;;;;;;10431418;28;20059;-74
2022/04/01 07:01:16;;;;;;;0.53;0.47;;;;;;;;;;10430456;28;20116;-71
2022/04/01 07:06:22;;;;;;;0.40;0.27;;;;;;;;;;10431048;28;20075;-71
2022/04/01 07:11:25;;;;;;;3.15;1.05;;;;;;;;;;10432339;28;20047;-71
2022/04/01 07:16:28;;;;;;;0.47;0.40;;;;;;;;;;10433188;28;20428;-72
2022/04/01 07:21:33;;;;;;;0.80;0.60;;;;;;;;;;10435090;28;20374;-71
2022/04/01 07:26:37;;;;;;;0.20;0.20;;;;;;;;;;10406587;28;20054;-74
2022/04/01 07:37:14;;;;;;;0.60;0.60;;;;;;;;;;10374941;28;20045;-71
2022/04/01 07:42:38;;;;;;;0.80;0.52;;;;;;;;;;10387369;28;20049;-74
2022/04/01 07:47:44;;;;;;;0.35;0.32;;;;;;;;;;10389998;28;20490;-75
2022/04/01 07:52:49;;;;;;;0.10;0.10;;;;;;;;;;10380909;28;20089;-75
2022/04/01 07:57:53;;;;;;;0.32;0.30;;;;;;;;;;10399277;28;20554;-74
2022/04/01 08:03:16;;;;;;;2.38;0.65;;;;;;;;;;10413100;28;20121;-73
2022/04/01 08:08:21;;;;;;;0.40;0.40;;;;;;;;;;10385438;28;20042;-75
2022/04/01 08:13:25;;;;;;;0.50;0.40;;;;;;;;;;10392139;28;20435;-75
2022/04/01 08:18:28;;;;;;;0.88;0.63;;;;;;;;;;10398526;28;20111;-75
2022/04/01 08:23:34;;;;;;;;;;;;;;;;;;10423042;28;20116;-75
2022/04/01 08:28:39;;;;;;;2.07;0.40;;;;;;;;;;10434885;28;19928;-75
2022/04/01 08:33:42;;;;;;;0.25;0.25;;;;;;;;;;10436818;28;20045;-75
2022/04/01 08:38:45;;;;;;;0.20;0.20;;;;;;;;;;10431541;28;20122;-76
2022/04/01 08:43:50;;;;;;;0.45;0.43;;;;;;;;;;10437043;28;20099;-75
2022/04/01 08:48:53;;;;;;;0.38;0.30;;;;;;;;;;10436025;28;20151;-75
2022/04/01 08:53:56;;;;;;;1.13;0.60;;;;;;;;;;10440339;28;20762;-75
2022/04/01 08:59:01;;;;;;;0.43;0.43;;;;;;;;;;10433543;28;20131;-75
2022/04/01 09:04:15;;;;;;;0.85;0.70;;;;;;;;;;10433700;28;20033;-72
2022/04/01 09:09:24;;;;;;;0.20;0.20;;;;;;;;;;10432889;28;20161;-75
2022/04/01 09:14:29;;;;;;;0.40;0.40;;;;;;;;;;10427212;28;20041;-76
2022/04/01 09:19:32;;;;;;;0.30;0.30;;;;;;;;;;10428229;28;20034;-74
2022/04/01 09:24:39;;;;;;;0.50;0.50;;;;;;;;;;10425308;28;20037;-75
2022/04/01 09:29:43;;;;;;;0.43;0.43;;;;;;;;;;10434265;28;20104;-75
2022/04/01 09:34:49;;;;;;;0.10;0.10;;;;;;;;;;10430642;28;20077;-76
2022/04/01 09:39:52;;;;;;;0.70;0.52;;;;;;;;;;10436896;28;20040;-76
2022/04/01 09:44:59;;;;;;;0.27;0.27;;;;;;;;;;10435867;28;20543;-75
2022/04/01 09:50:09;;;;;;;0.47;0.38;;;;;;;;;;10434067;28;20041;-75
2022/04/01 09:55:12;;;;;;;0.30;0.30;;;;;;;;;;10430464;28;20055;-75
2022/04/01 10:00:17;;;;;;;0.73;0.73;;;;;;;;;;10432803;28;20551;-75
2022/04/01 10:05:20;;;;;;;0.30;0.30;;;;;;;;;;10433908;28;20038;-75
2022/04/01 10:10:23;;;;;;;0.20;0.20;;;;;;;;;;10440602;28;20039;-75
2022/04/01 10:15:29;;;;;;;2.53;0.20;;;;;;;;;;10428219;28;20385;-74
2022/04/01 10:20:38;;;;;;;0.40;0.40;;;;;;;;;;10430963;28;20457;-75
2022/04/01 10:25:45;;;;;;;1.70;0.77;;;;;;;;;;10431499;28;20038;-74
2022/04/01 10:30:53;;;;;;;0.55;0.55;;;;;;;;;;10430189;28;20037;-74
2022/04/01 10:35:56;;;;;;;0.63;0.63;;;;;;;;;;10430824;28;20075;-76
2022/04/01 10:41:07;;;;;;;0.43;0.43;;;;;;;;;;10427496;28;20052;-74
2022/04/01 10:46:13;;;;;;;0.93;0.57;;;;;;;;;;10431828;28;20151;-75
2022/04/01 10:51:46;;;;;;;0.43;0.35;;;;;;;;;;10426604;28;20037;-75
2022/04/01 10:56:56;;;;;;;0.30;0.30;;;;;;;;;;10428894;28;20396;-75
2022/04/01 11:02:05;;;;;;;0.30;0.22;;;;;;;;;;10424284;28;20056;-75
2022/04/01 11:07:11;;;;;;;0.60;0.30;;;;;;;;;;10425990;28;20140;-75
2022/04/01 11:12:27;;;;;;;1.00;0.65;;;;;;;;;;10424717;28;21169;-75
2022/04/01 11:17:51;;;;;;;0.10;0.10;;;;;;;;;;10430224;28;20477;-74
2022/04/01 11:23:05;;;;;;;1.10;0.38;;;;;;;;;;10431373;28;20037;-74
2022/04/01 11:28:10;;;;;;;0.65;0.50;;;;;;;;;;10430874;28;20068;-75
2022/04/01 11:33:17;;;;;;;0.22;0.20;;;;;;;;;;10427569;28;20047;-75
2022/04/01 11:38:21;;;;;;;0.73;0.35;;;;;;;;;;10427931;28;20119;-75
2022/04/01 11:43:24;;;;;;;0.30;0.30;;;;;;;;;;10434297;28;20423;-74
2022/04/01 11:48:29;;;;;;;0.70;0.52;;;;;;;;;;10429136;28;20167;-74
2022/04/01 11:53:35;;;;;;;0.52;0.52;;;;;;;;;;10427636;28;20064;-74
2022/04/01 11:58:50;;;;;;;0.30;0.30;;;;;;;;;;10422782;28;20153;-75
2022/04/01 12:04:09;;;;;;;1.13;0.75;;;;;;;;;;10428920;28;20469;-74
2022/04/01 12:09:12;;;;;;;1.23;0.77;;;;;;;;;;10431942;28;20053;-75
2022/04/01 12:14:25;;;;;;;0.60;0.60;;;;;;;;;;10425805;28;20324;-76
2022/04/01 12:19:32;;;;;;;2.03;1.23;;;;;;;;;;10424547;28;20041;-73
2022/04/01 12:24:35;;;;;;;0.95;0.85;;;;;;;;;;10428588;28;20074;-75
2022/04/01 12:29:38;;;;;;;0.47;0.47;;;;;;;;;;10429068;28;20041;-75
2022/04/01 12:34:46;;;;;;;0.35;0.35;;;;;;;;;;10424267;28;20045;-74
2022/04/01 12:39:57;;;;;;;0.20;0.20;;;;;;;;;;10436383;28;20049;-75
2022/04/01 12:45:00;;;;;;;0.40;0.40;;;;;;;;;;10425314;28;20029;-75
2022/04/01 12:50:06;;;;;;;0.57;0.57;;;;;;;;;;10433983;28;20068;-75
2022/04/01 12:55:09;;;;;;;1.33;0.90;;;;;;;;;;10432491;28;20090;-74
2022/04/01 13:00:14;;;;;;;0.47;0.47;;;;;;;;;;10430542;28;20520;-73
2022/04/01 13:05:19;;;;;;;1.08;0.65;;;;;;;;;;10437646;28;20283;-74
2022/04/01 13:10:23;;;;;;;;;;;;;;;;;;10440282;28;20331;-73
2022/04/01 13:15:27;;;;;;;0.65;0.40;;;;;;;;;;10434384;28;20038;-75
2022/04/01 13:20:32;;;;;;;0.77;0.57;;;;;;;;;;10441837;28;20471;-74
2022/04/01 13:25:35;;;;;;;0.52;0.52;;;;;;;;;;10441306;28;21331;-74
2022/04/01 13:30:38;;;;;;;0.73;0.38;;;;;;;;;;10424959;28;20163;-74
2022/04/01 13:35:43;;;;;;;1.20;0.90;;;;;;;;;;10433580;28;20458;-74
2022/04/01 13:40:48;;;;;;;3.63;0.85;;;;;;;;;;10426723;28;20143;-74
2022/04/01 13:45:52;;;;;;;0.93;0.32;;;;;;;;;;10433257;28;20115;-74
2022/04/01 13:50:57;;;;;;;0.68;0.47;;;;;;;;;;10437018;28;20048;-74
2022/04/01 13:56:01;;;;;;;0.15;0.13;;;;;;;;;;10434641;28;20040;-74
2022/04/01 14:01:04;;;;;;;2.27;0.40;;;;;;;;;;10491116;23;20433;-74
2022/04/01 14:06:14;;;;;;;1.98;1.15;;;;;;;;;;10516756;28;20044;-74
2022/04/01 14:11:17;;;;;;;1.42;0.65;;;;;;;;;;10522276;28;20443;-72
2022/04/01 14:16:21;;;;;;;2.75;0.98;;;;;;;;;;10514666;28;20364;-73
2022/04/01 14:21:25;;;;;;;0.73;0.73;;;;;;;;;;10517588;28;20031;-74
2022/04/01 14:26:29;;;;;;;0.88;0.47;;;;;;;;;;10517015;28;20291;-74
2022/04/01 14:31:33;;;;;;;0.35;0.32;;;;;;;;;;10493265;28;20044;-74
2022/04/01 14:36:37;;;;;;;1.63;0.90;;;;;;;;;;10520137;28;20294;-73
2022/04/01 14:41:41;;;;;;;;;;;;;;;;;;10514210;28;20048;-73
2022/04/01 14:46:45;;;;;;;0.60;0.60;;;;;;;;;;10516654;28;19919;-74
2022/04/01 14:51:49;;;;;;;0.40;0.35;;;;;;;;;;10524124;28;20036;-74
2022/04/01 14:56:53;;;;;;;0.73;0.50;;;;;;;;;;10519310;28;20028;-74
2022/04/01 15:01:56;;;;;;;0.63;0.63;;;;;;;;;;10497597;28;20526;-73
2022/04/01 15:07:00;;;;;;;0.90;0.70;;;;;;;;;;10511001;28;20032;-74
2022/04/01 15:12:03;;;;;;;1.52;0.60;;;;;;;;;;10517951;28;20031;-74
2022/04/01 15:17:06;;;;;;;3.63;1.25;;;;;;;;;;10500896;28;20097;-73
2022/04/01 15:22:11;;;;;;;1.13;1.02;;;;;;;;;;10518371;28;20043;-74
2022/04/01 15:27:14;;;;;;;;;;;;;;;;;;10516667;28;20032;-75
2022/04/01 15:32:17;;;;;;;1.60;0.98;;;;;;;;;;10519399;28;19923;-74
2022/04/01 15:37:25;;;;;;;2.83;1.02;;;;;;;;;;10502895;28;20397;-74
2022/04/01 15:42:32;;;;;;;1.33;0.75;;;;;;;;;;10513351;28;20047;-74
2022/04/01 15:47:36;;;;;;;1.33;1.05;;;;;;;;;;10513078;28;20044;-72
2022/04/01 15:52:41;;;;;;;0.27;0.27;;;;;;;;;;10489134;28;20123;-74
2022/04/01 15:57:47;;;;;;;3.72;0.70;;;;;;;;;;10491863;28;20757;-74
2022/04/01 16:02:55;;;;;;;1.20;0.90;;;;;;;;;;10494097;28;20097;-74
2022/04/01 16:08:01;;;;;;;0.50;0.50;;;;;;;;;;10518549;28;20032;-74
2022/04/01 16:13:06;;;;;;;0.57;0.45;;;;;;;;;;10509955;28;20105;-74
2022/04/01 16:18:09;;;;;;;1.35;1.02;;;;;;;;;;10501146;28;20028;-75
2022/04/01 16:23:15;;;;;;;0.68;0.50;;;;;;;;;;10524505;28;20484;-74
2022/04/01 16:28:19;;;;;;;2.45;0.65;;;;;;;;;;10505105;28;20040;-74
2022/04/01 16:33:28;;;;;;;0.85;0.63;;;;;;;;;;10519131;28;20083;-74
2022/04/01 16:38:33;;;;;;;2.00;0.90;;;;;;;;;;10507122;28;20131;-74
2022/04/01 16:43:36;;;;;;;0.35;0.35;;;;;;;;;;10524259;28;20032;-74
2022/04/01 16:48:40;;;;;;;0.33;0.33;;;;;;;;;;10501229;28;20093;-74
2022/04/01 16:53:44;;;;;;;0.90;0.60;;;;;;;;;;10526724;28;20085;-74
2022/04/01 16:58:47;;;;;;;2.83;1.20;;;;;;;;;;10535189;28;20043;-73
2022/04/01 17:03:50;;;;;;;0.70;0.47;;;;;;;;;;10471941;28;20086;-73
2022/04/01 17:14:16;;;;;;;1.90;0.97;;;;;;;;;;10485531;28;20049;-74
2022/04/01 17:19:19;;;;;;;1.50;1.00;;;;;;;;;;10490512;28;20048;-73
2022/04/01 17:24:23;;;;;;;0.70;0.70;;;;;;;;;;10485598;28;20048;-75
2022/04/01 17:29:26;;;;;;;1.67;0.90;;;;;;;;;;10471278;28;20550;-73
2022/04/01 17:34:31;;;;;;;2.53;1.47;;;;;;;;;;10465580;28;20044;-74
2022/04/01 17:39:38;;;;;;;0.90;0.87;;;;;;;;;;10483183;28;20037;-74
2022/04/01 17:44:42;;;;;;;0.53;0.53;;;;;;;;;;10463439;28;20032;-73
2022/04/01 17:49:46;;;;;;;0.40;0.27;;;;;;;;;;10466785;28;20037;-74
2022/04/01 17:54:50;;;;;;;1.33;0.80;;;;;;;;;;10466124;28;20372;-74
2022/04/01 17:59:55;;;;;;;1.33;1.07;;;;;;;;;;10488960;28;20032;-75
2022/04/01 18:05:05;;;;;;;2.67;0.83;;;;;;;;;;10515337;28;20048;-73
2022/04/01 18:10:10;;;;;;;2.42;1.33;;;;;;;;;;10518640;28;20024;-73
2022/04/01 18:15:13;;;;;;;2.53;2.00;;;;;;;;;;10502386;28;20043;-75
2022/04/01 18:20:16;;;;;;;3.53;1.80;;;;;;;;;;10497941;28;20077;-73
2022/04/01 18:25:20;;;;;;;5.77;3.40;;;;;;;;;;10505032;28;20495;-73
2022/04/01 18:30:25;;;;;;;4.90;1.63;;;;;;;;;;10497349;28;20035;-74
2022/04/01 18:35:29;;;;;;;3.93;2.43;;;;;;;;;;10496816;28;21581;-72
2022/04/01 18:40:34;;;;;;;2.23;1.53;;;;;;;;;;10518309;28;20124;-74
2022/04/01 18:45:38;;;;;;;4.27;2.20;;;;;;;;;;10502461;28;20028;-73
2022/04/01 18:50:43;;;;;;;6.82;2.35;;;;;;;;;;10497247;28;20036;-75
2022/04/01 18:55:50;;;;;;;2.73;1.87;;;;;;;;;;10496910;28;20130;-74
2022/04/01 19:00:54;;;;;;;7.60;2.87;;;;;;;;;;10503997;28;20052;-74
2022/04/01 19:06:01;;;;;;;5.17;2.13;;;;;;;;;;10503492;28;20504;-74
2022/04/01 19:11:08;;;;;;;3.37;1.97;;;;;;;;;;10501319;28;20051;-74
2022/04/01 19:16:12;;;;;;;3.10;2.20;;;;;;;;;;10516148;28;20036;-75
2022/04/01 19:21:18;;;;;;;9.33;5.17;;;;;;;;;;10498178;28;20031;-74
2022/04/01 19:26:23;;;;;;;5.60;2.90;;;;;;;;;;10515183;28;20491;-76
2022/04/01 19:31:26;;;;;;;4.77;2.57;;;;;;;;;;10502031;28;20129;-76
2022/04/01 19:36:29;;;;;;;5.03;2.23;;;;;;;;;;10505834;28;20047;-74
2022/04/01 19:41:35;;;;;;;6.85;4.13;;;;;;;;;;10525125;28;20067;-74
2022/04/01 19:46:42;;;;;;;2.80;1.90;;;;;;;;;;10519957;28;20390;-76
2022/04/01 19:51:46;;;;;;;7.65;4.03;;;;;;;;;;10498633;28;20625;-75
2022/04/01 19:56:51;;;;;;;3.35;2.08;;;;;;;;;;10502457;28;20036;-76
2022/04/01 20:01:54;;;;;;;9.43;5.00;;;;;;;;;;10537581;22;20512;-74
2022/04/01 20:06:57;;;;;;;4.73;2.53;;;;;;;;;;10522492;28;20039;-76
2022/04/01 20:12:02;;;;;;;6.33;2.97;;;;;;;;;;10485369;28;20059;-75
2022/04/01 20:17:05;;;;;;;5.70;2.77;;;;;;;;;;10485386;28;20071;-76
2022/04/01 20:22:09;;;;;;;3.77;2.30;;;;;;;;;;10484863;28;20040;-74
2022/04/01 20:27:16;;;;;;;2.17;1.43;;;;;;;;;;10483008;28;20131;-75
2022/04/01 20:32:18;;;;;;;;;;;;;;;;;;10468023;28;20041;-78
2022/04/01 20:37:22;;;;;;;4.80;2.33;;;;;;;;;;10465435;28;19920;-76
2022/04/01 20:42:26;;;;;;;2.13;1.70;;;;;;;;;;10466100;28;20036;-75
2022/04/01 20:47:29;;;;;;;;;;;;;;;;;;10491749;28;20133;-75
2022/04/01 20:52:32;;;;;;;9.20;4.60;;;;;;;;;;10486667;28;19928;-75
2022/04/01 20:57:37;;;;;;;9.20;3.60;;;;;;;;;;10471166;28;20040;-76
2022/04/01 21:02:41;;;;;;;7.87;5.17;;;;;;;;;;10487560;28;20441;-78
2022/04/01 21:07:47;;;;;;;4.70;2.27;;;;;;;;;;10487213;28;20404;-77
2022/04/01 21:12:52;;;;;;;7.70;3.63;;;;;;;;;;10464951;28;20167;-77
2022/04/01 21:17:56;;;;;;;11.73;6.50;;;;;;;;;;10464530;28;20040;-76
2022/04/01 21:23:00;;;;;;;11.23;2.77;;;;;;;;;;10463692;28;20047;-76
2022/04/01 21:28:05;;;;;;;5.30;2.70;;;;;;;;;;10476415;28;20040;-76
2022/04/01 21:33:08;;;;;;;8.17;3.97;;;;;;;;;;10463223;28;20514;-76
2022/04/01 21:38:11;;;;;;;3.33;2.03;;;;;;;;;;10462563;28;20040;-75
2022/04/01 21:43:15;;;;;;;4.70;2.20;;;;;;;;;;10483425;28;20689;-75
2022/04/01 21:48:18;;;;;;;7.73;4.83;;;;;;;;;;10497655;28;20486;-75
2022/04/01 21:53:22;;;;;;;4.47;2.03;;;;;;;;;;10479208;28;20031;-73
2022/04/01 21:58:26;;;;;;;6.80;3.37;;;;;;;;;;10484289;28;20113;-74
2022/04/01 22:03:29;;;;;;;1.73;1.20;;;;;;;;;;10495543;28;20131;-76
2022/04/01 22:08:32;;;;;;;1.77;1.00;;;;;;;;;;10482902;28;20127;-75
2022/04/01 22:13:37;;;;;;;4.57;3.00;;;;;;;;;;10461485;28;20137;-74
2022/04/01 22:18:40;;;;;;;12.00;4.80;;;;;;;;;;10488471;28;20098;-73
2022/04/01 22:23:44;;;;;;;6.50;2.53;;;;;;;;;;10483838;28;20152;-75
2022/04/01 22:28:49;;;;;;;5.60;3.33;;;;;;;;;;10465549;28;20060;-74
2022/04/01 22:33:55;;;;;;;5.90;2.87;;;;;;;;;;10483890;28;20204;-74
2022/04/01 22:38:59;;;;;;;2.77;1.27;;;;;;;;;;10461766;28;20037;-73
2022/04/01 22:44:03;;;;;;;5.60;2.40;;;;;;;;;;10482954;28;20107;-72
2022/04/01 22:49:06;;;;;;;3.80;2.00;;;;;;;;;;10476808;28;20104;-75
2022/04/01 22:54:09;;;;;;;3.20;2.28;;;;;;;;;;10488295;28;20032;-75
2022/04/01 22:59:15;;;;;;;7.50;2.97;;;;;;;;;;10481862;28;20060;-74
2022/04/01 23:04:18;;;;;;;9.63;4.03;;;;;;;;;;10466334;28;20318;-75
2022/04/01 23:09:22;;;;;;;1.93;1.47;;;;;;;;;;10463691;28;20589;-75
2022/04/01 23:14:27;;;;;;;4.40;1.80;;;;;;;;;;10482295;28;20055;-75
2022/04/01 23:19:30;;;;;;;9.50;4.33;;;;;;;;;;10486567;28;20094;-74
2022/04/01 23:24:34;;;;;;;8.10;3.03;;;;;;;;;;10479319;28;20127;-73
2022/04/01 23:29:38;;;;;;;7.38;3.53;;;;;;;;;;10463693;28;20067;-75
2022/04/01 23:34:41;;;;;;;2.27;1.27;;;;;;;;;;10479758;28;20051;-75
2022/04/01 23:39:44;;;;;;;4.17;2.20;;;;;;;;;;10482619;28;20028;-75
2022/04/01 23:44:49;;;;;;;5.73;2.63;;;;;;;;;;10461994;28;20036;-74
2022/04/01 23:49:52;;;;;;;9.60;3.73;;;;;;;;;;10479145;28;20159;-76
2022/04/01 23:54:55;;;;;;;7.13;3.40;;;;;;;;;;10484032;28;20074;-76
